EWG99X LEMH-LMML
Flight info
| Callsign | EWG99X |
|---|---|
| Flight time | 1h 25m |
| Altitude | 37000 |
| Route | MORSS DCT TABOT DCT SENTI DCT ROBIM DCT RATOK DCT UPLIT DCT TIVOR |
| Aircraft | A320/M-SDE3FGHIRWY/LB1 |
Departure
| Time | 2026-04-08 21:13 |
|---|---|
| Airport | Menorca Airport (LEMH) |
Arrival
| Time | 2026-04-08 22:38 |
|---|---|
| Airport | Malta International Airport (LMML) |
| Time | Latitude | Longitude | Altitude | Speed | Heading |
|---|---|---|---|---|---|
| 2026-04-08 20:39 | 39.86575 | 4.22432 | 287 ft | 0 kts | 99° |
| 2026-04-08 20:54 | 39.86575 | 4.22426 | 286 ft | 3 kts | 100° |
| 2026-04-08 20:54 | 39.86581 | 4.22392 | 287 ft | 4 kts | 108° |
| 2026-04-08 20:54 | 39.86592 | 4.22361 | 290 ft | 4 kts | 132° |
| 2026-04-08 20:55 | 39.86610 | 4.22347 | 293 ft | 2 kts | 189° |
| 2026-04-08 20:55 | 39.86611 | 4.22347 | 293 ft | 1 kts | 189° |
| 2026-04-08 20:57 | 39.86601 | 4.22345 | 294 ft | 4 kts | 189° |
| 2026-04-08 20:58 | 39.86559 | 4.22336 | 290 ft | 6 kts | 193° |
| 2026-04-08 20:58 | 39.86537 | 4.22305 | 292 ft | 3 kts | 249° |
| 2026-04-08 20:58 | 39.86533 | 4.22289 | 291 ft | 1 kts | 256° |
| 2026-04-08 20:58 | 39.86541 | 4.22231 | 296 ft | 11 kts | 278° |
| 2026-04-08 20:59 | 39.86567 | 4.22174 | 296 ft | 5 kts | 340° |
| 2026-04-08 20:59 | 39.86633 | 4.22180 | 295 ft | 16 kts | 8° |
| 2026-04-08 20:59 | 39.86764 | 4.22206 | 297 ft | 20 kts | 9° |
| 2026-04-08 20:59 | 39.86901 | 4.22234 | 300 ft | 20 kts | 18° |
| 2026-04-08 21:00 | 39.87033 | 4.22263 | 304 ft | 19 kts | 6° |
| 2026-04-08 21:00 | 39.87163 | 4.22289 | 308 ft | 19 kts | 9° |
| 2026-04-08 21:00 | 39.87270 | 4.22310 | 309 ft | 6 kts | 8° |
| 2026-04-08 21:00 | 39.87302 | 4.22318 | 310 ft | 3 kts | 13° |
| 2026-04-08 21:01 | 39.87307 | 4.22319 | 311 ft | 0 kts | 13° |
| 2026-04-08 21:01 | 39.87310 | 4.22320 | 311 ft | 0 kts | 10° |
| 2026-04-08 21:01 | 39.87354 | 4.22327 | 312 ft | 4 kts | 3° |
| 2026-04-08 21:02 | 39.87362 | 4.22326 | 313 ft | 0 kts | 353° |
| 2026-04-08 21:07 | 39.87369 | 4.22325 | 313 ft | 6 kts | 354° |
| 2026-04-08 21:07 | 39.87431 | 4.22336 | 316 ft | 9 kts | 341° |
| 2026-04-08 21:07 | 39.87456 | 4.22281 | 316 ft | 7 kts | 265° |
| 2026-04-08 21:07 | 39.87440 | 4.22217 | 314 ft | 8 kts | 251° |
| 2026-04-08 21:08 | 39.87439 | 4.22214 | 314 ft | 0 kts | 250° |
| 2026-04-08 21:09 | 39.87438 | 4.22213 | 313 ft | 1 kts | 250° |
| 2026-04-08 21:09 | 39.87436 | 4.22204 | 313 ft | 0 kts | 248° |
| 2026-04-08 21:09 | 39.87435 | 4.22201 | 313 ft | 0 kts | 248° |
| 2026-04-08 21:09 | 39.87433 | 4.22196 | 313 ft | 0 kts | 248° |
| 2026-04-08 21:10 | 39.87427 | 4.22180 | 311 ft | 8 kts | 240° |
| 2026-04-08 21:10 | 39.87341 | 4.22093 | 310 ft | 19 kts | 199° |
| 2026-04-08 21:10 | 39.87286 | 4.22076 | 311 ft | 0 kts | 189° |
| 2026-04-08 21:11 | 39.87284 | 4.22075 | 310 ft | 2 kts | 189° |
| 2026-04-08 21:11 | 39.87242 | 4.22068 | 308 ft | 7 kts | 190° |
| 2026-04-08 21:11 | 39.87226 | 4.22064 | 307 ft | 0 kts | 190° |
| 2026-04-08 21:12 | 39.87210 | 4.22061 | 307 ft | 13 kts | 189° |
| 2026-04-08 21:12 | 39.86858 | 4.21988 | 303 ft | 88 kts | 188° |
| 2026-04-08 21:12 | 39.86045 | 4.21821 | 306 ft | 146 kts | 188° |
| 2026-04-08 21:12 | 39.84965 | 4.21603 | 728 ft | 161 kts | 189° |
| 2026-04-08 21:13 | 39.83828 | 4.21354 | 1348 ft | 170 kts | 191° |
| 2026-04-08 21:13 | 39.82574 | 4.21061 | 1619 ft | 199 kts | 191° |
| 2026-04-08 21:13 | 39.81139 | 4.20711 | 1937 ft | 223 kts | 192° |
| 2026-04-08 21:13 | 39.79524 | 4.20316 | 2338 ft | 249 kts | 191° |
| 2026-04-08 21:14 | 39.77765 | 4.19944 | 3043 ft | 263 kts | 190° |
| 2026-04-08 21:14 | 39.75921 | 4.19900 | 3851 ft | 272 kts | 166° |
| 2026-04-08 21:14 | 39.74297 | 4.21159 | 4836 ft | 277 kts | 132° |
| 2026-04-08 21:14 | 39.73453 | 4.23401 | 5736 ft | 282 kts | 98° |
| 2026-04-08 21:15 | 39.73675 | 4.25874 | 6632 ft | 283 kts | 65° |
| 2026-04-08 21:15 | 39.74863 | 4.27897 | 7488 ft | 284 kts | 41° |
| 2026-04-08 21:15 | 39.76327 | 4.29637 | 8388 ft | 286 kts | 43° |
| 2026-04-08 21:15 | 39.77740 | 4.31486 | 9264 ft | 290 kts | 45° |
| 2026-04-08 21:16 | 39.79191 | 4.33319 | 10131 ft | 293 kts | 40° |
| 2026-04-08 21:16 | 39.80834 | 4.34902 | 10904 ft | 296 kts | 30° |
| 2026-04-08 21:16 | 39.82708 | 4.36048 | 11656 ft | 301 kts | 18° |
| 2026-04-08 21:16 | 39.84812 | 4.36714 | 11937 ft | 323 kts | 7° |
| 2026-04-08 21:17 | 39.87085 | 4.37315 | 12240 ft | 343 kts | 20° |
| 2026-04-08 21:17 | 39.89138 | 4.38931 | 12856 ft | 351 kts | 43° |
| 2026-04-08 21:17 | 39.90596 | 4.41490 | 13547 ft | 356 kts | 65° |
| 2026-04-08 21:17 | 39.91362 | 4.44589 | 14059 ft | 366 kts | 75° |
| 2026-04-08 21:18 | 39.92010 | 4.47827 | 14622 ft | 372 kts | 76° |
| 2026-04-08 21:18 | 39.93275 | 4.54419 | 15924 ft | 378 kts | 76° |
| 2026-04-08 21:18 | 39.93917 | 4.57757 | 16586 ft | 381 kts | 75° |
| 2026-04-08 21:19 | 39.94567 | 4.61101 | 17299 ft | 381 kts | 76° |
| 2026-04-08 21:19 | 39.95046 | 4.64179 | 17901 ft | 383 kts | 83° |
| 2026-04-08 21:19 | 39.95119 | 4.67604 | 18512 ft | 386 kts | 94° |
| 2026-04-08 21:19 | 39.94686 | 4.71075 | 19028 ft | 389 kts | 104° |
| 2026-04-08 21:20 | 39.93924 | 4.74488 | 19507 ft | 393 kts | 106° |
| 2026-04-08 21:20 | 39.93143 | 4.77926 | 19987 ft | 397 kts | 106° |
| 2026-04-08 21:20 | 39.92350 | 4.81402 | 20430 ft | 402 kts | 106° |
| 2026-04-08 21:20 | 39.91548 | 4.84915 | 20886 ft | 407 kts | 106° |
| 2026-04-08 21:21 | 39.90739 | 4.88460 | 21357 ft | 411 kts | 106° |
| 2026-04-08 21:21 | 39.89922 | 4.92043 | 21814 ft | 414 kts | 106° |
| 2026-04-08 21:21 | 39.89103 | 4.95656 | 22265 ft | 418 kts | 105° |
| 2026-04-08 21:21 | 39.88272 | 4.99314 | 22671 ft | 423 kts | 105° |
| 2026-04-08 21:22 | 39.87430 | 5.03008 | 23099 ft | 428 kts | 105° |
| 2026-04-08 21:22 | 39.86577 | 5.06735 | 23515 ft | 432 kts | 106° |
| 2026-04-08 21:22 | 39.85725 | 5.10445 | 23901 ft | 435 kts | 106° |
| 2026-04-08 21:22 | 39.84845 | 5.14285 | 24268 ft | 439 kts | 106° |
| 2026-04-08 21:23 | 39.83968 | 5.18102 | 24639 ft | 442 kts | 106° |
| 2026-04-08 21:23 | 39.83096 | 5.21890 | 24994 ft | 445 kts | 106° |
| 2026-04-08 21:23 | 39.82203 | 5.25753 | 25337 ft | 447 kts | 106° |
| 2026-04-08 21:23 | 39.81290 | 5.29691 | 25690 ft | 450 kts | 106° |
| 2026-04-08 21:24 | 39.80395 | 5.33555 | 26043 ft | 453 kts | 105° |
| 2026-04-08 21:24 | 39.79486 | 5.37486 | 26368 ft | 456 kts | 106° |
| 2026-04-08 21:24 | 39.78566 | 5.41454 | 26712 ft | 459 kts | 106° |
| 2026-04-08 21:24 | 39.77639 | 5.45431 | 27059 ft | 462 kts | 106° |
| 2026-04-08 21:25 | 39.76703 | 5.49437 | 27396 ft | 464 kts | 106° |
| 2026-04-08 21:25 | 39.75760 | 5.53463 | 27728 ft | 467 kts | 106° |
| 2026-04-08 21:25 | 39.74810 | 5.57511 | 28056 ft | 470 kts | 106° |
| 2026-04-08 21:25 | 39.73857 | 5.61579 | 28379 ft | 472 kts | 106° |
| 2026-04-08 21:26 | 39.72899 | 5.65672 | 28680 ft | 474 kts | 106° |
| 2026-04-08 21:26 | 39.71936 | 5.69777 | 28979 ft | 477 kts | 106° |
| 2026-04-08 21:26 | 39.70963 | 5.73902 | 29349 ft | 477 kts | 106° |
| 2026-04-08 21:26 | 39.69987 | 5.78028 | 29727 ft | 478 kts | 106° |
| 2026-04-08 21:27 | 39.69021 | 5.82113 | 30034 ft | 479 kts | 106° |
| 2026-04-08 21:27 | 39.68038 | 5.86259 | 30340 ft | 481 kts | 106° |
| 2026-04-08 21:27 | 39.67057 | 5.90403 | 30674 ft | 480 kts | 106° |
| 2026-04-08 21:27 | 39.66076 | 5.94536 | 31024 ft | 479 kts | 106° |
| 2026-04-08 21:28 | 39.65093 | 5.98667 | 31337 ft | 479 kts | 106° |
| 2026-04-08 21:28 | 39.64105 | 6.02813 | 31568 ft | 482 kts | 106° |
| 2026-04-08 21:28 | 39.63111 | 6.06977 | 31831 ft | 484 kts | 106° |
| 2026-04-08 21:28 | 39.62112 | 6.11141 | 32178 ft | 483 kts | 106° |
| 2026-04-08 21:29 | 39.61116 | 6.15287 | 32585 ft | 481 kts | 106° |
| 2026-04-08 21:29 | 39.60120 | 6.19421 | 32939 ft | 480 kts | 106° |
| 2026-04-08 21:29 | 39.59125 | 6.23542 | 33284 ft | 479 kts | 106° |
| 2026-04-08 21:29 | 39.58127 | 6.27670 | 33611 ft | 479 kts | 106° |
| 2026-04-08 21:30 | 39.57132 | 6.31791 | 33938 ft | 479 kts | 106° |
| 2026-04-08 21:30 | 39.56131 | 6.35927 | 34247 ft | 479 kts | 106° |
| 2026-04-08 21:30 | 39.55134 | 6.40044 | 34540 ft | 479 kts | 106° |
| 2026-04-08 21:30 | 39.54136 | 6.44159 | 34846 ft | 478 kts | 107° |
| 2026-04-08 21:31 | 39.53139 | 6.48262 | 35174 ft | 476 kts | 106° |
| 2026-04-08 21:31 | 39.52145 | 6.52340 | 35524 ft | 474 kts | 107° |
| 2026-04-08 21:31 | 39.51163 | 6.56357 | 35827 ft | 473 kts | 107° |
| 2026-04-08 21:31 | 39.50175 | 6.60405 | 36108 ft | 472 kts | 107° |
| 2026-04-08 21:32 | 39.49184 | 6.64451 | 36369 ft | 471 kts | 107° |
| 2026-04-08 21:32 | 39.48191 | 6.68495 | 36623 ft | 470 kts | 107° |
| 2026-04-08 21:32 | 39.47201 | 6.72526 | 36875 ft | 470 kts | 107° |
| 2026-04-08 21:32 | 39.46207 | 6.76551 | 37102 ft | 470 kts | 107° |
| 2026-04-08 21:33 | 39.44215 | 6.84604 | 37200 ft | 470 kts | 107° |
| 2026-04-08 21:33 | 39.42227 | 6.92647 | 37190 ft | 469 kts | 107° |
| 2026-04-08 21:34 | 39.40238 | 7.00675 | 37190 ft | 469 kts | 107° |
| 2026-04-08 21:34 | 39.38240 | 7.08694 | 37190 ft | 469 kts | 107° |
| 2026-04-08 21:35 | 39.36240 | 7.16660 | 37190 ft | 469 kts | 107° |
| 2026-04-08 21:35 | 39.34224 | 7.24671 | 37172 ft | 470 kts | 107° |
| 2026-04-08 21:36 | 39.32201 | 7.32721 | 37169 ft | 471 kts | 107° |
| 2026-04-08 21:36 | 39.30175 | 7.40775 | 37173 ft | 472 kts | 107° |
| 2026-04-08 21:37 | 39.28130 | 7.48834 | 37181 ft | 473 kts | 107° |
| 2026-04-08 21:37 | 39.26081 | 7.56897 | 37185 ft | 473 kts | 107° |
| 2026-04-08 21:38 | 39.24020 | 7.64960 | 37198 ft | 473 kts | 107° |
| 2026-04-08 21:38 | 39.21969 | 7.72968 | 37199 ft | 473 kts | 107° |
| 2026-04-08 21:39 | 39.19907 | 7.81023 | 37202 ft | 473 kts | 107° |
| 2026-04-08 21:39 | 39.17835 | 7.89064 | 37200 ft | 472 kts | 107° |
| 2026-04-08 21:40 | 39.15753 | 7.97100 | 37215 ft | 472 kts | 107° |
| 2026-04-08 21:40 | 39.13042 | 8.04814 | 37212 ft | 473 kts | 117° |
| 2026-04-08 21:41 | 39.10016 | 8.12268 | 37206 ft | 472 kts | 116° |
| 2026-04-08 21:41 | 39.06979 | 8.19779 | 37202 ft | 472 kts | 116° |
| 2026-04-08 21:42 | 39.03937 | 8.27268 | 37176 ft | 473 kts | 117° |
| 2026-04-08 21:42 | 39.00865 | 8.34769 | 37186 ft | 475 kts | 117° |
| 2026-04-08 21:43 | 38.97775 | 8.42291 | 37181 ft | 476 kts | 117° |
| 2026-04-08 21:43 | 38.94689 | 8.49821 | 37185 ft | 477 kts | 117° |
| 2026-04-08 21:44 | 38.91597 | 8.57367 | 37189 ft | 477 kts | 117° |
| 2026-04-08 21:44 | 38.88494 | 8.64915 | 37197 ft | 478 kts | 117° |
| 2026-04-08 21:45 | 38.85372 | 8.72452 | 37219 ft | 478 kts | 117° |
| 2026-04-08 21:45 | 38.82246 | 8.79978 | 37212 ft | 478 kts | 117° |
| 2026-04-08 21:46 | 38.79122 | 8.87511 | 37206 ft | 478 kts | 117° |
| 2026-04-08 21:46 | 38.75994 | 8.95038 | 37189 ft | 479 kts | 117° |
| 2026-04-08 21:47 | 38.72849 | 9.02569 | 37184 ft | 480 kts | 118° |
| 2026-04-08 21:47 | 38.69710 | 9.10057 | 37194 ft | 480 kts | 118° |
| 2026-04-08 21:48 | 38.66551 | 9.17593 | 37192 ft | 481 kts | 118° |
| 2026-04-08 21:48 | 38.63375 | 9.25137 | 37192 ft | 481 kts | 118° |
| 2026-04-08 21:49 | 38.60209 | 9.32668 | 37194 ft | 481 kts | 118° |
| 2026-04-08 21:49 | 38.57023 | 9.40226 | 37194 ft | 482 kts | 118° |
| 2026-04-08 21:50 | 38.53838 | 9.47757 | 37212 ft | 482 kts | 118° |
| 2026-04-08 21:50 | 38.50664 | 9.55227 | 37207 ft | 482 kts | 118° |
| 2026-04-08 21:51 | 38.47457 | 9.62761 | 37192 ft | 482 kts | 118° |
| 2026-04-08 21:51 | 38.44243 | 9.70283 | 37194 ft | 483 kts | 118° |
| 2026-04-08 21:52 | 38.41026 | 9.77807 | 37197 ft | 484 kts | 118° |
| 2026-04-08 21:52 | 38.37804 | 9.85340 | 37204 ft | 484 kts | 118° |
| 2026-04-08 21:53 | 38.34575 | 9.92867 | 37204 ft | 484 kts | 119° |
| 2026-04-08 21:53 | 38.31882 | 9.99110 | 37203 ft | 484 kts | 119° |
| 2026-04-08 21:54 | 38.28636 | 10.06619 | 37202 ft | 484 kts | 119° |
| 2026-04-08 21:54 | 38.24869 | 10.15364 | 37199 ft | 484 kts | 119° |
| 2026-04-08 21:55 | 38.22148 | 10.21650 | 37207 ft | 484 kts | 119° |
| 2026-04-08 21:55 | 38.18917 | 10.29078 | 37189 ft | 483 kts | 119° |
| 2026-04-08 21:56 | 38.15658 | 10.36546 | 37188 ft | 483 kts | 119° |
| 2026-04-08 21:56 | 38.12395 | 10.44020 | 37188 ft | 483 kts | 119° |
| 2026-04-08 21:57 | 38.09135 | 10.51480 | 37189 ft | 483 kts | 119° |
| 2026-04-08 21:57 | 38.05866 | 10.58935 | 37199 ft | 484 kts | 119° |
| 2026-04-08 21:58 | 38.02587 | 10.66406 | 37196 ft | 484 kts | 119° |
| 2026-04-08 21:58 | 37.99295 | 10.73874 | 37195 ft | 484 kts | 119° |
| 2026-04-08 21:59 | 37.96012 | 10.81324 | 37195 ft | 484 kts | 120° |
| 2026-04-08 21:59 | 37.92707 | 10.88757 | 37194 ft | 484 kts | 121° |
| 2026-04-08 22:00 | 37.88781 | 10.95598 | 37191 ft | 483 kts | 128° |
| 2026-04-08 22:00 | 37.84686 | 11.02402 | 37188 ft | 483 kts | 128° |
| 2026-04-08 22:01 | 37.80632 | 11.09112 | 37190 ft | 483 kts | 128° |
| 2026-04-08 22:01 | 37.76544 | 11.15863 | 37191 ft | 483 kts | 128° |
| 2026-04-08 22:02 | 37.72454 | 11.22614 | 37193 ft | 483 kts | 128° |
| 2026-04-08 22:02 | 37.68364 | 11.29358 | 37194 ft | 484 kts | 128° |
| 2026-04-08 22:03 | 37.64266 | 11.36103 | 37203 ft | 484 kts | 128° |
| 2026-04-08 22:03 | 37.60164 | 11.42838 | 37186 ft | 484 kts | 128° |
| 2026-04-08 22:04 | 37.56088 | 11.49519 | 37190 ft | 483 kts | 128° |
| 2026-04-08 22:04 | 37.51988 | 11.56224 | 37189 ft | 483 kts | 129° |
| 2026-04-08 22:05 | 37.47880 | 11.62915 | 37183 ft | 483 kts | 129° |
| 2026-04-08 22:05 | 37.43773 | 11.69609 | 37193 ft | 483 kts | 129° |
| 2026-04-08 22:06 | 37.39653 | 11.76305 | 37191 ft | 483 kts | 129° |
| 2026-04-08 22:06 | 37.35524 | 11.82988 | 37180 ft | 484 kts | 129° |
| 2026-04-08 22:07 | 37.31388 | 11.89658 | 37185 ft | 484 kts | 129° |
| 2026-04-08 22:07 | 37.27250 | 11.96336 | 37186 ft | 484 kts | 129° |
| 2026-04-08 22:08 | 37.23151 | 12.02962 | 37188 ft | 484 kts | 129° |
| 2026-04-08 22:08 | 37.19018 | 12.09624 | 37187 ft | 484 kts | 129° |
| 2026-04-08 22:09 | 37.14866 | 12.16263 | 37188 ft | 484 kts | 129° |
| 2026-04-08 22:09 | 37.10711 | 12.22906 | 37186 ft | 484 kts | 129° |
| 2026-04-08 22:10 | 37.06553 | 12.29564 | 37181 ft | 484 kts | 129° |
| 2026-04-08 22:10 | 37.02405 | 12.36193 | 37186 ft | 484 kts | 129° |
| 2026-04-08 22:11 | 36.98272 | 12.42776 | 37196 ft | 484 kts | 129° |
| 2026-04-08 22:11 | 36.94075 | 12.49434 | 37194 ft | 484 kts | 129° |
| 2026-04-08 22:12 | 36.89925 | 12.56007 | 37193 ft | 485 kts | 129° |
| 2026-04-08 22:12 | 36.85746 | 12.62629 | 37196 ft | 485 kts | 129° |
| 2026-04-08 22:13 | 36.81558 | 12.69255 | 37196 ft | 485 kts | 129° |
| 2026-04-08 22:13 | 36.77363 | 12.75862 | 37188 ft | 485 kts | 130° |
| 2026-04-08 22:14 | 36.73201 | 12.82414 | 37191 ft | 485 kts | 130° |
| 2026-04-08 22:14 | 36.69003 | 12.89011 | 37192 ft | 486 kts | 130° |
| 2026-04-08 22:15 | 36.64791 | 12.95618 | 37193 ft | 486 kts | 130° |
| 2026-04-08 22:15 | 36.60572 | 13.02207 | 37195 ft | 486 kts | 130° |
| 2026-04-08 22:16 | 36.56355 | 13.08783 | 37197 ft | 486 kts | 130° |
| 2026-04-08 22:16 | 36.52139 | 13.15351 | 37198 ft | 486 kts | 130° |
| 2026-04-08 22:17 | 36.47926 | 13.21912 | 37186 ft | 486 kts | 130° |
| 2026-04-08 22:17 | 36.43702 | 13.28468 | 37189 ft | 486 kts | 130° |
| 2026-04-08 22:18 | 36.39498 | 13.34971 | 37191 ft | 486 kts | 130° |
| 2026-04-08 22:18 | 36.35265 | 13.41507 | 37193 ft | 486 kts | 130° |
| 2026-04-08 22:19 | 36.31034 | 13.48050 | 37194 ft | 486 kts | 130° |
| 2026-04-08 22:19 | 36.26804 | 13.54579 | 37192 ft | 486 kts | 131° |
| 2026-04-08 22:20 | 36.22560 | 13.61096 | 37189 ft | 486 kts | 131° |
| 2026-04-08 22:20 | 36.18302 | 13.67615 | 36685 ft | 488 kts | 131° |
| 2026-04-08 22:21 | 36.16155 | 13.70899 | 35682 ft | 495 kts | 131° |
| 2026-04-08 22:21 | 36.13981 | 13.74225 | 34837 ft | 498 kts | 131° |
| 2026-04-08 22:21 | 36.11827 | 13.77520 | 34046 ft | 499 kts | 131° |
| 2026-04-08 22:21 | 36.09647 | 13.80855 | 33123 ft | 499 kts | 131° |
| 2026-04-08 22:22 | 36.07458 | 13.84198 | 32193 ft | 501 kts | 131° |
| 2026-04-08 22:22 | 36.05262 | 13.87546 | 31235 ft | 502 kts | 130° |
| 2026-04-08 22:22 | 36.03052 | 13.90911 | 30236 ft | 505 kts | 130° |
| 2026-04-08 22:22 | 36.00841 | 13.94276 | 29305 ft | 503 kts | 130° |
| 2026-04-08 22:23 | 35.98639 | 13.97625 | 28355 ft | 501 kts | 130° |
| 2026-04-08 22:23 | 35.96448 | 14.00951 | 27534 ft | 496 kts | 130° |
| 2026-04-08 22:23 | 35.94284 | 14.04236 | 26785 ft | 490 kts | 130° |
| 2026-04-08 22:23 | 35.92146 | 14.07479 | 26055 ft | 484 kts | 130° |
| 2026-04-08 22:24 | 35.90033 | 14.10679 | 25335 ft | 478 kts | 130° |
| 2026-04-08 22:24 | 35.87943 | 14.13843 | 24654 ft | 472 kts | 130° |
| 2026-04-08 22:24 | 35.85879 | 14.16963 | 23997 ft | 467 kts | 130° |
| 2026-04-08 22:24 | 35.83837 | 14.20044 | 23281 ft | 462 kts | 130° |
| 2026-04-08 22:25 | 35.81835 | 14.23063 | 22548 ft | 458 kts | 130° |
| 2026-04-08 22:25 | 35.79830 | 14.26082 | 21832 ft | 454 kts | 130° |
| 2026-04-08 22:25 | 35.77836 | 14.29087 | 21156 ft | 449 kts | 130° |
| 2026-04-08 22:25 | 35.75868 | 14.32055 | 20500 ft | 445 kts | 130° |
| 2026-04-08 22:26 | 35.73915 | 14.34997 | 19866 ft | 441 kts | 130° |
| 2026-04-08 22:26 | 35.71983 | 14.37902 | 19230 ft | 437 kts | 130° |
| 2026-04-08 22:26 | 35.70063 | 14.40784 | 18628 ft | 433 kts | 130° |
| 2026-04-08 22:26 | 35.68324 | 14.43777 | 17979 ft | 430 kts | 117° |
| 2026-04-08 22:27 | 35.67396 | 14.47244 | 17356 ft | 425 kts | 97° |
| 2026-04-08 22:27 | 35.67460 | 14.50831 | 16725 ft | 418 kts | 77° |
| 2026-04-08 22:27 | 35.68468 | 14.54133 | 16107 ft | 410 kts | 57° |
| 2026-04-08 22:28 | 35.72558 | 14.58621 | 14937 ft | 391 kts | 20° |
| 2026-04-08 22:28 | 35.75138 | 14.59470 | 14365 ft | 381 kts | 3° |
| 2026-04-08 22:28 | 35.77790 | 14.59658 | 13570 ft | 383 kts | 359° |
| 2026-04-08 22:28 | 35.80431 | 14.59794 | 13053 ft | 376 kts | 359° |
| 2026-04-08 22:29 | 35.82994 | 14.59912 | 12478 ft | 371 kts | 359° |
| 2026-04-08 22:29 | 35.85568 | 14.60026 | 11883 ft | 368 kts | 359° |
| 2026-04-08 22:29 | 35.88094 | 14.60141 | 11621 ft | 355 kts | 359° |
| 2026-04-08 22:29 | 35.90505 | 14.60260 | 11501 ft | 339 kts | 359° |
| 2026-04-08 22:30 | 35.92813 | 14.60378 | 11374 ft | 325 kts | 359° |
| 2026-04-08 22:30 | 35.95021 | 14.60490 | 11246 ft | 312 kts | 358° |
| 2026-04-08 22:30 | 35.97147 | 14.60597 | 11132 ft | 300 kts | 358° |
| 2026-04-08 22:30 | 35.99202 | 14.60699 | 10929 ft | 292 kts | 358° |
| 2026-04-08 22:31 | 36.01230 | 14.60796 | 10600 ft | 289 kts | 358° |
| 2026-04-08 22:31 | 36.03235 | 14.60889 | 10252 ft | 287 kts | 358° |
| 2026-04-08 22:31 | 36.05220 | 14.60982 | 9890 ft | 286 kts | 358° |
| 2026-04-08 22:31 | 36.07182 | 14.61208 | 9699 ft | 281 kts | 12° |
| 2026-04-08 22:32 | 36.08823 | 14.62476 | 9555 ft | 283 kts | 45° |
| 2026-04-08 22:32 | 36.09712 | 14.64672 | 8998 ft | 298 kts | 77° |
| 2026-04-08 22:32 | 36.09563 | 14.67275 | 8189 ft | 317 kts | 109° |
| 2026-04-08 22:32 | 36.08318 | 14.69575 | 7335 ft | 330 kts | 140° |
| 2026-04-08 22:33 | 36.06309 | 14.70887 | 6487 ft | 338 kts | 167° |
| 2026-04-08 22:33 | 36.03999 | 14.71139 | 6049 ft | 330 kts | 187° |
| 2026-04-08 22:33 | 36.01810 | 14.70487 | 5608 ft | 319 kts | 206° |
| 2026-04-08 22:33 | 36.00000 | 14.69067 | 5025 ft | 301 kts | 225° |
| 2026-04-08 22:34 | 35.98514 | 14.67348 | 4572 ft | 285 kts | 226° |
| 2026-04-08 22:34 | 35.97107 | 14.65717 | 4184 ft | 273 kts | 226° |
| 2026-04-08 22:34 | 35.95740 | 14.64135 | 3797 ft | 263 kts | 226° |
| 2026-04-08 22:34 | 35.94443 | 14.62630 | 3437 ft | 249 kts | 229° |
| 2026-04-08 22:35 | 35.93393 | 14.61026 | 3079 ft | 235 kts | 237° |
| 2026-04-08 22:35 | 35.92449 | 14.59415 | 2728 ft | 227 kts | 238° |
| 2026-04-08 22:35 | 35.91543 | 14.57829 | 2392 ft | 226 kts | 237° |
| 2026-04-08 22:35 | 35.90643 | 14.56249 | 2042 ft | 222 kts | 237° |
| 2026-04-08 22:36 | 35.89771 | 14.54724 | 1708 ft | 214 kts | 237° |
| 2026-04-08 22:36 | 35.88953 | 14.53291 | 1359 ft | 199 kts | 237° |
| 2026-04-08 22:36 | 35.88223 | 14.51916 | 1269 ft | 183 kts | 239° |
| 2026-04-08 22:36 | 35.87512 | 14.50691 | 1079 ft | 170 kts | 232° |
| 2026-04-08 22:37 | 35.86807 | 14.49593 | 808 ft | 153 kts | 234° |
| 2026-04-08 22:37 | 35.86212 | 14.48541 | 466 ft | 145 kts | 234° |
| 2026-04-08 22:37 | 35.85654 | 14.47585 | 272 ft | 126 kts | 234° |
| 2026-04-08 22:37 | 35.85263 | 14.46909 | 295 ft | 70 kts | 233° |
| 2026-04-08 22:38 | 35.85082 | 14.46595 | 311 ft | 21 kts | 236° |
| 2026-04-08 22:38 | 35.85016 | 14.46485 | 308 ft | 20 kts | 239° |
| 2026-04-08 22:38 | 35.84918 | 14.46326 | 308 ft | 24 kts | 232° |
| 2026-04-08 22:38 | 35.84826 | 14.46160 | 308 ft | 23 kts | 233° |
| 2026-04-08 22:39 | 35.84774 | 14.46000 | 308 ft | 18 kts | 297° |
| 2026-04-08 22:39 | 35.84885 | 14.45970 | 308 ft | 16 kts | 24° |
| 2026-04-08 22:39 | 35.84953 | 14.46065 | 308 ft | 15 kts | 56° |
| 2026-04-08 22:39 | 35.84983 | 14.46118 | 310 ft | 0 kts | 52° |
| 2026-04-08 22:42 | 35.84986 | 14.46123 | 308 ft | 4 kts | 52° |
| 2026-04-08 22:42 | 35.85012 | 14.46166 | 308 ft | 4 kts | 52° |
| 2026-04-08 22:42 | 35.85024 | 14.46185 | 308 ft | 4 kts | 55° |
| 2026-04-08 22:42 | 35.85045 | 14.46223 | 308 ft | 6 kts | 55° |
| 2026-04-08 22:43 | 35.85068 | 14.46263 | 308 ft | 5 kts | 55° |
| 2026-04-08 22:43 | 35.85117 | 14.46347 | 308 ft | 20 kts | 56° |
| 2026-04-08 22:43 | 35.85196 | 14.46483 | 308 ft | 18 kts | 53° |
| 2026-04-08 22:43 | 35.85267 | 14.46608 | 305 ft | 19 kts | 54° |
| 2026-04-08 22:44 | 35.85351 | 14.46748 | 297 ft | 22 kts | 54° |
| 2026-04-08 22:44 | 35.85419 | 14.46893 | 293 ft | 15 kts | 69° |
| 2026-04-08 22:44 | 35.85474 | 14.47018 | 283 ft | 18 kts | 54° |
| 2026-04-08 22:44 | 35.85555 | 14.47147 | 276 ft | 20 kts | 51° |
| 2026-04-08 22:45 | 35.85645 | 14.47273 | 272 ft | 16 kts | 29° |
| 2026-04-08 22:45 | 35.85722 | 14.47360 | 272 ft | 14 kts | 51° |
| 2026-04-08 22:45 | 35.85778 | 14.47456 | 272 ft | 13 kts | 56° |
| 2026-04-08 22:45 | 35.85831 | 14.47545 | 272 ft | 14 kts | 58° |
| 2026-04-08 22:46 | 35.85877 | 14.47687 | 272 ft | 18 kts | 69° |
| 2026-04-08 22:46 | 35.85919 | 14.47825 | 272 ft | 17 kts | 69° |
| 2026-04-08 22:46 | 35.85963 | 14.47949 | 272 ft | 15 kts | 65° |
| 2026-04-08 22:46 | 35.86005 | 14.48063 | 272 ft | 14 kts | 69° |
| 2026-04-08 22:47 | 35.85961 | 14.48137 | 272 ft | 11 kts | 149° |
| 2026-04-08 22:47 | 35.85876 | 14.48161 | 275 ft | 14 kts | 171° |
| 2026-04-08 22:47 | 35.85770 | 14.48183 | 276 ft | 16 kts | 171° |
| 2026-04-08 22:47 | 35.85668 | 14.48181 | 272 ft | 12 kts | 228° |
| 2026-04-08 22:48 | 35.85657 | 14.48068 | 272 ft | 17 kts | 263° |
| 2026-04-08 22:48 | 35.85573 | 14.48052 | 272 ft | 14 kts | 160° |
| 2026-04-08 22:48 | 35.85457 | 14.48119 | 272 ft | 22 kts | 146° |
| 2026-04-08 22:48 | 35.85341 | 14.48250 | 272 ft | 23 kts | 134° |
| 2026-04-08 22:49 | 35.85225 | 14.48394 | 272 ft | 22 kts | 135° |
| 2026-04-08 22:49 | 35.85132 | 14.48511 | 272 ft | 15 kts | 132° |
| 2026-04-08 22:49 | 35.85056 | 14.48635 | 266 ft | 20 kts | 116° |
| 2026-04-08 22:49 | 35.85023 | 14.48762 | 262 ft | 16 kts | 106° |
| 2026-04-08 22:50 | 35.84991 | 14.48902 | 259 ft | 19 kts | 105° |
| 2026-04-08 22:50 | 35.84938 | 14.49049 | 258 ft | 18 kts | 129° |
| 2026-04-08 22:50 | 35.84924 | 14.49174 | 258 ft | 16 kts | 50° |
| 2026-04-08 22:50 | 35.84915 | 14.49289 | 259 ft | 13 kts | 126° |
| 2026-04-08 22:51 | 35.84881 | 14.49334 | 259 ft | 0 kts | 133° |
| 2026-04-08 22:51 | 35.84883 | 14.49342 | 259 ft | 1 kts | 61° |
| 2026-04-08 22:51 | 35.84901 | 14.49339 | 259 ft | 3 kts | 347° |
| 2026-04-08 22:52 | 35.84920 | 14.49337 | 259 ft | 2 kts | 357° |
| 2026-04-08 22:52 | 35.84935 | 14.49337 | 259 ft | 2 kts | 359° |
| 2026-04-08 22:52 | 35.84944 | 14.49337 | 259 ft | 1 kts | 359° |
| 2026-04-08 22:52 | 35.84954 | 14.49336 | 259 ft | 1 kts | 359° |
| 2026-04-08 22:53 | 35.84955 | 14.49336 | 259 ft | 0 kts | 359° |